createdAt,value
2022-09-06T03:46:54.970Z,5.38
2022-09-06T03:49:21.738Z,5.15
2022-09-06T03:51:48.488Z,4.50
2022-09-06T03:54:15.258Z,4.95
2022-09-06T03:56:41.983Z,5.53
2022-09-06T03:59:08.999Z,5.15
2022-09-06T04:01:35.861Z,5.60
2022-09-06T04:04:02.921Z,5.45
2022-09-06T04:06:29.709Z,5.30
2022-09-06T04:08:56.728Z,5.32
2022-09-06T04:11:23.539Z,5.05
2022-09-06T04:13:50.323Z,5.18
2022-09-06T04:16:18.698Z,4.97
2022-09-06T04:18:45.691Z,4.85
2022-09-06T04:21:12.461Z,5.15
2022-09-06T04:23:40.094Z,5.72
2022-09-06T04:26:07.160Z,5.40
2022-09-06T04:28:33.962Z,5.47
2022-09-06T04:31:04.955Z,5.43
2022-09-06T04:33:34.253Z,5.20
2022-09-06T04:36:02.611Z,5.45
2022-09-06T04:38:31.137Z,4.85
2022-09-06T04:40:57.862Z,4.93
2022-09-06T04:43:24.682Z,5.07
2022-09-06T04:45:51.501Z,4.38
2022-09-06T04:48:18.377Z,4.85
2022-09-06T04:50:45.187Z,4.72
2022-09-06T04:53:12.048Z,4.15
2022-09-06T04:55:39.014Z,5.70
2022-09-06T04:58:06.189Z,5.30
2022-09-06T05:00:34.533Z,5.32
2022-09-06T05:03:01.348Z,5.03
2022-09-06T05:05:28.229Z,4.55
2022-09-06T05:07:55.889Z,5.45
2022-09-06T05:10:23.377Z,5.40
2022-09-06T05:12:51.610Z,5.07
2022-09-06T05:15:20.196Z,5.30
2022-09-06T05:17:47.166Z,5.35
2022-09-06T05:20:15.133Z,5.28
2022-09-06T05:22:41.973Z,5.68
2022-09-06T05:25:09.829Z,5.63
2022-09-06T05:27:36.533Z,6.03
2022-09-06T05:30:04.157Z,5.97
2022-09-06T05:32:30.969Z,4.80
2022-09-06T05:34:57.737Z,5.03
2022-09-06T05:37:24.534Z,4.40
2022-09-06T05:39:51.752Z,5.10
2022-09-06T05:42:19.433Z,4.80
2022-09-06T05:44:46.336Z,4.90
2022-09-06T05:47:13.569Z,5.60
2022-09-06T05:49:40.533Z,5.22
2022-09-06T05:52:07.302Z,5.63
2022-09-06T05:54:34.011Z,5.47
2022-09-06T05:57:00.767Z,5.13
2022-09-06T05:59:27.576Z,5.63
2022-09-06T06:01:55.115Z,5.78
2022-09-06T06:04:22.451Z,6.03
2022-09-06T06:06:49.607Z,5.60
2022-09-06T06:09:16.961Z,5.95
2022-09-06T06:11:44.044Z,6.13
2022-09-06T06:14:10.990Z,6.68
2022-09-06T06:16:37.823Z,6.30
2022-09-06T06:19:04.666Z,6.68
2022-09-06T06:21:33.533Z,6.13
2022-09-06T06:24:02.981Z,6.93
2022-09-06T06:26:32.289Z,6.18
2022-09-06T06:29:01.890Z,7.35
2022-09-06T06:31:30.527Z,6.95
2022-09-06T06:33:58.258Z,7.85
2022-09-06T06:36:26.858Z,9.20
2022-09-06T06:38:55.342Z,7.90
2022-09-06T06:41:24.409Z,8.60
2022-09-06T06:43:52.633Z,7.35
2022-09-06T06:46:21.378Z,7.43
2022-09-06T06:48:51.559Z,8.00
2022-09-06T06:51:23.721Z,7.53
2022-09-06T06:53:50.544Z,7.22
2022-09-06T06:56:23.027Z,7.63
2022-09-06T06:58:52.444Z,7.68
2022-09-06T07:01:20.794Z,7.68
2022-09-06T07:03:48.329Z,7.25
2022-09-06T07:06:15.930Z,6.47
2022-09-06T07:08:42.917Z,7.40
2022-09-06T07:11:11.958Z,7.22
2022-09-06T07:13:39.013Z,6.78
2022-09-06T07:16:18.001Z,7.25
2022-09-06T07:18:45.932Z,6.38
2022-09-06T07:26:31.705Z,5.53
2022-09-06T07:29:00.653Z,5.30
2022-09-06T07:34:15.980Z,5.47
2022-09-06T07:36:42.733Z,5.40
2022-09-06T07:39:09.421Z,4.97
2022-09-06T07:41:36.158Z,4.30
2022-09-06T07:44:03.525Z,4.53
2022-09-06T07:46:30.266Z,4.70
2022-09-06T07:48:57.089Z,4.20
2022-09-06T07:51:23.841Z,4.05
2022-09-06T07:54:07.369Z,3.95
2022-09-06T07:56:40.348Z,4.10
2022-09-06T07:59:07.302Z,4.32
2022-09-06T08:01:40.273Z,3.78
2022-09-06T08:04:13.143Z,3.45
2022-09-06T08:09:33.446Z,3.70
2022-09-06T08:12:06.486Z,3.50
2022-09-06T08:14:34.357Z,3.20
2022-09-06T08:17:01.636Z,3.05
2022-09-06T08:19:28.374Z,3.17
2022-09-06T08:21:56.018Z,2.97
2022-09-06T08:24:23.030Z,2.97
2022-09-06T08:26:50.262Z,3.20
2022-09-06T08:29:17.053Z,3.85
2022-09-06T08:31:44.854Z,3.50
2022-09-06T08:34:12.713Z,3.55
2022-09-06T08:36:39.943Z,3.25
2022-09-06T08:39:11.548Z,3.72
2022-09-06T08:41:47.510Z,3.78
2022-09-06T08:47:13.582Z,3.17
2022-09-06T08:49:43.704Z,3.67
2022-09-06T08:53:13.245Z,3.67
2022-09-06T08:55:50.590Z,3.50
2022-09-06T08:58:41.902Z,3.80
2022-09-06T09:01:23.194Z,4.35
2022-09-06T09:03:50.632Z,3.95
2022-09-06T09:06:17.363Z,4.25
2022-09-06T09:08:52.809Z,4.45
2022-09-06T09:11:22.588Z,4.55
2022-09-06T09:13:59.317Z,3.90
2022-09-06T09:16:26.655Z,4.10
2022-09-06T09:18:57.854Z,4.20
2022-09-06T09:21:30.718Z,4.38
2022-09-06T09:24:02.393Z,3.97
2022-09-06T09:26:50.510Z,4.13
2022-09-06T09:29:17.588Z,3.67
2022-09-06T09:31:53.691Z,4.00
2022-09-06T09:34:39.657Z,3.15
2022-09-06T09:39:59.702Z,3.00
2022-09-06T09:42:29.538Z,4.20
2022-09-06T09:44:57.205Z,3.60
2022-09-06T09:47:30.211Z,3.47
2022-09-06T09:49:58.110Z,4.05
2022-09-06T09:52:30.905Z,3.20
2022-09-06T09:55:02.764Z,3.40
2022-09-06T09:57:45.209Z,3.78
2022-09-06T10:00:15.535Z,3.60
2022-09-06T10:02:43.113Z,3.72
2022-09-06T10:05:20.650Z,3.70
2022-09-06T10:08:09.262Z,3.63
2022-09-06T10:10:41.422Z,3.40
2022-09-06T10:13:30.444Z,3.50
2022-09-06T10:15:59.179Z,3.50
2022-09-06T10:18:41.215Z,3.90
2022-09-06T10:21:16.110Z,3.50
2022-09-06T10:26:48.563Z,3.90
2022-09-06T10:29:40.246Z,3.80
2022-09-06T10:32:18.554Z,3.72
2022-09-06T10:34:59.710Z,3.88
2022-09-06T10:37:44.328Z,3.85
2022-09-06T10:40:16.302Z,3.90
2022-09-06T10:42:46.985Z,3.92
2022-09-06T10:45:31.777Z,22.67
2022-09-06T10:48:14.885Z,3.05
2022-09-06T10:51:28.154Z,3.63
2022-09-06T10:54:02.689Z,4.28
2022-09-06T10:56:53.574Z,3.85
2022-09-06T10:59:50.235Z,4.05
2022-09-06T11:02:30.319Z,4.03
2022-09-06T11:10:49.896Z,4.15
2022-09-06T11:13:19.241Z,4.07
2022-09-06T11:15:52.078Z,3.22
2022-09-06T11:18:28.512Z,3.95
2022-09-06T11:21:35.727Z,3.15
2022-09-06T11:24:22.870Z,3.83
2022-09-06T11:27:19.857Z,3.63
2022-09-06T11:29:56.233Z,3.40
2022-09-06T11:32:40.261Z,3.42
2022-09-06T11:35:20.331Z,3.10
2022-09-06T11:37:51.015Z,3.22
2022-09-06T11:43:09.332Z,3.15
2022-09-06T11:45:45.957Z,3.05
2022-09-06T11:48:26.663Z,3.33
2022-09-06T11:50:59.750Z,3.80
2022-09-06T11:53:32.690Z,3.33
2022-09-06T11:56:02.382Z,3.40
2022-09-06T11:58:51.316Z,3.65
2022-09-06T12:01:18.845Z,4.25
2022-09-06T12:04:05.222Z,3.50
2022-09-06T12:06:39.709Z,3.95
2022-09-06T12:09:33.953Z,3.78
2022-09-06T12:12:01.318Z,3.50
2022-09-06T12:14:36.297Z,3.85
2022-09-06T12:17:07.606Z,3.80
2022-09-06T12:19:54.211Z,3.92
2022-09-06T12:22:29.924Z,3.53
2022-09-06T12:24:59.720Z,4.22
2022-09-06T12:27:27.545Z,4.05
2022-09-06T12:30:12.973Z,3.47
2022-09-06T12:32:49.462Z,3.53
2022-09-06T12:38:17.202Z,3.45
2022-09-06T12:40:51.609Z,4.18
2022-09-06T12:43:19.513Z,3.85
2022-09-06T12:45:50.563Z,3.67
2022-09-06T12:48:30.671Z,3.70
2022-09-06T12:51:19.418Z,4.00
2022-09-06T12:53:53.358Z,4.05
2022-09-06T12:56:21.702Z,4.10
2022-09-06T12:58:48.629Z,4.55
2022-09-06T13:01:36.628Z,4.05
2022-09-06T13:04:16.314Z,5.25
2022-09-06T13:06:46.438Z,4.05
2022-09-06T13:09:17.522Z,4.00
2022-09-06T13:11:47.388Z,3.58
2022-09-06T13:14:20.748Z,4.07
2022-09-06T13:19:40.093Z,3.33
2022-09-06T13:22:11.097Z,4.30
2022-09-06T13:24:46.836Z,4.13
2022-09-06T13:27:36.732Z,4.05
2022-09-06T13:30:09.141Z,3.67
2022-09-06T13:32:45.669Z,3.50
2022-09-06T13:35:26.838Z,2.38
2022-09-06T13:37:53.562Z,1.85
2022-09-06T13:40:59.951Z,2.20
2022-09-06T13:43:26.398Z,1.60
2022-09-06T13:46:05.490Z,1.67
2022-09-06T13:48:32.998Z,1.77
2022-09-06T13:50:59.755Z,1.52
2022-09-06T13:53:26.757Z,1.40
2022-09-06T13:55:53.509Z,1.42
2022-09-06T13:58:21.643Z,1.40
2022-09-06T14:00:48.816Z,1.15
2022-09-06T14:03:22.557Z,1.20
2022-09-06T14:05:49.314Z,1.10
2022-09-06T14:08:16.162Z,1.15
2022-09-06T14:10:43.717Z,1.60
2022-09-06T14:13:10.849Z,1.75
2022-09-06T14:15:38.433Z,1.67
2022-09-06T14:18:05.461Z,1.75
2022-09-06T14:20:32.700Z,2.25
2022-09-06T14:22:59.642Z,2.00
2022-09-06T14:25:26.485Z,2.22
2022-09-06T14:27:53.250Z,1.80
2022-09-06T14:30:20.036Z,1.80
2022-09-06T14:32:46.762Z,1.85
2022-09-06T14:35:13.534Z,1.80
2022-09-06T14:37:40.378Z,1.70
2022-09-06T14:40:08.570Z,1.90
2022-09-06T14:42:35.395Z,1.92
2022-09-06T14:45:02.110Z,1.80
2022-09-06T14:47:28.862Z,1.60
2022-09-06T14:49:55.589Z,1.90
2022-09-06T14:52:22.409Z,1.65
2022-09-06T14:54:49.134Z,1.50
2022-09-06T14:57:15.914Z,1.70
2022-09-06T14:59:42.732Z,1.27
2022-09-06T15:02:09.565Z,1.50
2022-09-06T15:04:36.526Z,1.55
2022-09-06T15:07:03.918Z,1.35
2022-09-06T15:09:30.759Z,2.10
2022-09-06T15:11:57.580Z,2.10
2022-09-06T15:14:26.960Z,2.55
2022-09-06T15:16:59.894Z,2.95
2022-09-06T15:19:28.431Z,2.38
2022-09-06T15:21:56.249Z,2.70
2022-09-06T15:24:23.030Z,2.13
2022-09-06T15:26:50.225Z,1.98
2022-09-06T15:29:17.403Z,2.17
2022-09-06T15:31:50.055Z,2.13
2022-09-06T15:34:26.731Z,2.47
2022-09-06T15:36:53.675Z,2.25
2022-09-06T15:39:20.676Z,2.10
2022-09-06T15:41:49.994Z,2.30
2022-09-06T15:44:18.820Z,2.17
2022-09-06T15:46:58.132Z,2.55
2022-09-06T15:49:28.538Z,2.13
2022-09-06T15:51:57.246Z,2.63
2022-09-06T15:54:42.492Z,2.63
2022-09-06T15:57:09.515Z,2.67
2022-09-06T15:59:36.437Z,2.30
2022-09-06T16:02:03.408Z,2.10
2022-09-06T16:04:30.616Z,2.50
2022-09-06T16:06:57.373Z,2.25
2022-09-06T16:09:24.184Z,2.85
2022-09-06T16:11:51.006Z,3.17
2022-09-06T16:14:18.004Z,3.00
2022-09-06T16:16:45.502Z,2.40
2022-09-06T16:19:12.998Z,2.53
2022-09-06T16:21:41.654Z,2.05
2022-09-06T16:24:11.359Z,2.40
2022-09-06T16:26:40.915Z,2.75
2022-09-06T16:29:09.345Z,2.65
2022-09-06T16:31:40.297Z,3.08
2022-09-06T16:34:08.388Z,2.70
2022-09-06T16:36:35.336Z,2.60
2022-09-06T16:39:02.309Z,3.20
2022-09-06T16:41:42.855Z,2.33
2022-09-06T16:44:16.340Z,2.28
2022-09-06T16:46:45.698Z,1.90
2022-09-06T16:49:12.716Z,2.40
2022-09-06T16:51:39.485Z,2.70
2022-09-06T16:54:06.294Z,2.30
2022-09-06T16:56:35.753Z,2.60
2022-09-06T16:59:05.629Z,2.90
2022-09-06T17:01:33.441Z,2.22
2022-09-06T17:04:02.251Z,2.55
2022-09-06T17:06:30.043Z,2.58
2022-09-06T17:09:00.604Z,2.50
2022-09-06T17:11:28.713Z,2.55
2022-09-06T17:13:56.630Z,2.05
2022-09-06T17:16:42.445Z,2.20
2022-09-06T17:19:10.098Z,2.45
2022-09-06T17:21:39.139Z,2.42
2022-09-06T17:24:07.754Z,2.42
2022-09-06T17:26:37.202Z,2.60
2022-09-06T17:29:04.931Z,2.30
2022-09-06T17:31:32.096Z,2.00
2022-09-06T17:33:59.844Z,2.58
2022-09-06T17:36:30.057Z,2.38
2022-09-06T17:39:21.053Z,2.90
2022-09-06T17:41:50.929Z,2.20
2022-09-06T17:44:20.219Z,2.35
2022-09-06T17:47:09.018Z,2.83
2022-09-06T17:49:35.165Z,2.45
2022-09-06T17:52:01.997Z,2.50
2022-09-06T17:54:29.727Z,2.78
2022-09-06T17:56:56.509Z,2.50
2022-09-06T17:59:23.313Z,2.05
2022-09-06T18:01:50.268Z,2.70
2022-09-06T18:04:17.585Z,2.10
2022-09-06T18:06:46.362Z,2.10
2022-09-06T18:09:15.878Z,2.35
2022-09-06T18:11:45.910Z,2.17
2022-09-06T18:14:16.191Z,3.13
2022-09-06T18:16:46.918Z,2.70
2022-09-06T18:19:13.923Z,2.72
2022-09-06T18:21:41.059Z,2.92
2022-09-06T18:24:09.739Z,2.83
2022-09-06T18:26:37.382Z,3.22
2022-09-06T18:29:07.049Z,3.00
2022-09-06T18:31:33.915Z,3.13
2022-09-06T18:34:00.847Z,3.50
2022-09-06T18:36:31.964Z,3.30
2022-09-06T18:39:03.227Z,2.70
2022-09-06T18:41:49.007Z,2.45
2022-09-06T18:44:16.623Z,2.13
2022-09-06T18:46:43.574Z,2.10
2022-09-06T18:49:11.201Z,1.83
2022-09-06T18:51:39.892Z,1.83
2022-09-06T18:54:06.959Z,1.48
2022-09-06T18:56:34.120Z,1.75
2022-09-06T18:59:02.110Z,2.10
2022-09-06T19:01:30.379Z,1.73
2022-09-06T19:03:58.024Z,1.63
2022-09-06T19:06:26.100Z,1.48
2022-09-06T19:08:53.857Z,1.73
2022-09-06T19:11:21.680Z,2.20
2022-09-06T19:13:52.497Z,1.90
2022-09-06T19:16:20.162Z,1.50
2022-09-06T19:18:47.009Z,1.83
2022-09-06T19:21:19.319Z,2.03
2022-09-06T19:23:48.750Z,2.25
2022-09-06T19:26:18.325Z,1.73
2022-09-06T19:28:50.470Z,1.70
2022-09-06T19:31:18.555Z,2.10
2022-09-06T19:33:47.665Z,2.05
2022-09-06T19:36:15.214Z,2.10
2022-09-06T19:39:01.844Z,1.90
2022-09-06T19:41:31.205Z,1.98
2022-09-06T19:43:59.103Z,1.95
2022-09-06T19:46:26.824Z,2.38
2022-09-06T19:48:56.003Z,1.90
2022-09-06T19:51:24.114Z,3.35
2022-09-06T19:53:53.430Z,2.85
2022-09-06T19:56:22.842Z,2.75
2022-09-06T19:59:07.329Z,2.90
2022-09-06T20:01:35.933Z,2.80
2022-09-06T20:04:05.625Z,3.38
2022-09-06T20:06:33.029Z,2.85
2022-09-06T20:09:01.531Z,2.75
2022-09-06T20:11:30.581Z,3.03
2022-09-06T20:13:57.561Z,2.72
2022-09-06T20:16:24.883Z,3.50
2022-09-06T20:18:53.801Z,2.70
2022-09-06T20:21:21.029Z,2.90
2022-09-06T20:23:52.129Z,3.13
2022-09-06T20:26:20.311Z,2.97
2022-09-06T20:28:47.479Z,3.58
2022-09-06T20:31:16.799Z,3.38
2022-09-06T20:33:49.202Z,3.22
2022-09-06T20:36:17.642Z,3.97
2022-09-06T20:38:45.692Z,3.33
2022-09-06T20:41:18.022Z,3.63
2022-09-06T20:43:46.510Z,3.13
2022-09-06T20:46:15.517Z,3.05
2022-09-06T20:48:44.900Z,3.47
2022-09-06T20:51:15.884Z,3.15
2022-09-06T20:53:42.740Z,2.95
2022-09-06T20:56:15.336Z,3.03
2022-09-06T20:58:42.760Z,3.13
2022-09-06T21:01:15.903Z,3.13
2022-09-06T21:03:43.180Z,3.20
2022-09-06T21:06:12.301Z,3.00
2022-09-06T21:08:42.772Z,3.20
2022-09-06T21:11:10.452Z,2.85
2022-09-06T21:13:37.956Z,3.30
2022-09-06T21:16:05.281Z,3.50
2022-09-06T21:18:33.009Z,3.17
2022-09-06T21:21:08.028Z,3.30
2022-09-06T21:23:37.713Z,3.80
2022-09-06T21:26:04.511Z,3.00
2022-09-06T21:28:34.362Z,4.05
2022-09-06T21:31:09.747Z,3.80
2022-09-06T21:33:41.505Z,3.45
2022-09-06T21:36:11.234Z,3.20
2022-09-06T21:38:42.239Z,3.40
2022-09-06T21:41:10.661Z,3.20
2022-09-06T21:43:37.541Z,3.47
2022-09-06T21:46:07.398Z,3.33
2022-09-06T21:48:42.199Z,3.55
2022-09-06T21:51:10.789Z,3.40
2022-09-06T21:53:37.880Z,3.08
2022-09-06T21:56:05.363Z,2.97
2022-09-06T21:58:32.999Z,3.42
2022-09-06T22:01:01.293Z,2.92
2022-09-06T22:03:32.413Z,3.08
2022-09-06T22:05:59.531Z,3.05
2022-09-06T22:08:26.654Z,3.17
2022-09-06T22:10:53.482Z,3.10
2022-09-06T22:13:20.941Z,2.97
2022-09-06T22:15:47.809Z,3.40
2022-09-06T22:18:14.643Z,3.85
2022-09-06T22:20:41.399Z,3.35
2022-09-06T22:23:09.930Z,3.85
2022-09-06T22:25:36.703Z,3.15
2022-09-06T22:28:03.680Z,3.30
2022-09-06T22:30:31.043Z,3.20
2022-09-06T22:32:58.156Z,3.30
2022-09-06T22:35:24.877Z,3.38
2022-09-06T22:37:51.808Z,3.28
2022-09-06T22:40:19.001Z,3.40
2022-09-06T22:42:46.162Z,3.35
2022-09-06T22:45:12.929Z,3.15
2022-09-06T22:47:39.731Z,3.35
2022-09-06T22:50:07.206Z,3.30
2022-09-06T22:52:33.958Z,3.80
2022-09-06T22:55:00.688Z,3.70
2022-09-06T22:57:27.450Z,3.55
2022-09-06T22:59:54.247Z,3.40
